sensor_id;sensor_type;location;lat;lon;timestamp;temperature;humidity
69189;DHT22;56302;52.322;5.926;2023-03-21T11:47:13;11.50;91.10
69189;DHT22;56302;52.322;5.926;2023-03-21T11:49:38;11.40;90.90
69189;DHT22;56302;52.322;5.926;2023-03-21T11:52:21;11.30;90.30
69189;DHT22;56302;52.322;5.926;2023-03-21T11:54:52;11.30;90.50
69189;DHT22;56302;52.322;5.926;2023-03-21T11:57:41;11.40;90.90
69189;DHT22;56302;52.322;5.926;2023-03-21T12:00:17;11.40;90.50
69189;DHT22;56302;52.322;5.926;2023-03-21T12:03:03;11.50;90.10
69189;DHT22;56302;52.322;5.926;2023-03-21T12:05:42;11.60;90.90
69189;DHT22;56302;52.322;5.926;2023-03-21T12:11:14;12.00;90.00
69189;DHT22;56302;52.322;5.926;2023-03-21T12:16:54;12.10;88.60
69189;DHT22;56302;52.322;5.926;2023-03-21T12:21:55;12.00;88.50
69189;DHT22;56302;52.322;5.926;2023-03-21T12:24:42;11.90;88.10
69189;DHT22;56302;52.322;5.926;2023-03-21T12:38:51;11.80;87.20
69189;DHT22;56302;52.322;5.926;2023-03-21T12:41:30;11.80;87.70
69189;DHT22;56302;52.322;5.926;2023-03-21T12:44:20;11.80;87.20
69189;DHT22;56302;52.322;5.926;2023-03-21T12:46:50;11.80;87.00
69189;DHT22;56302;52.322;5.926;2023-03-21T12:52:13;11.90;87.60
69189;DHT22;56302;52.322;5.926;2023-03-21T12:54:58;11.90;87.20
69189;DHT22;56302;52.322;5.926;2023-03-21T12:57:34;11.90;87.90
69189;DHT22;56302;52.322;5.926;2023-03-21T13:00:22;11.90;87.60
69189;DHT22;56302;52.322;5.926;2023-03-21T13:05:34;12.00;86.80
69189;DHT22;56302;52.322;5.926;2023-03-21T13:08:24;11.90;86.80
69189;DHT22;56302;52.322;5.926;2023-03-21T13:10:50;11.90;86.50
69189;DHT22;56302;52.322;5.926;2023-03-21T13:13:27;11.90;86.70
69189;DHT22;56302;52.322;5.926;2023-03-21T13:18:38;11.80;86.10
69189;DHT22;56302;52.322;5.926;2023-03-21T13:26:46;12.20;85.70
69189;DHT22;56302;52.322;5.926;2023-03-21T13:29:30;12.20;84.80
69189;DHT22;56302;52.322;5.926;2023-03-21T13:32:05;12.40;85.10
69189;DHT22;56302;52.322;5.926;2023-03-21T13:34:31;12.40;83.90
69189;DHT22;56302;52.322;5.926;2023-03-21T13:36:57;12.50;84.20
69189;DHT22;56302;52.322;5.926;2023-03-21T13:39:27;12.50;84.40
69189;DHT22;56302;52.322;5.926;2023-03-21T13:41:53;12.70;83.90
69189;DHT22;56302;52.322;5.926;2023-03-21T13:47:05;12.60;81.40
69189;DHT22;56302;52.322;5.926;2023-03-21T13:49:35;12.60;82.60
69189;DHT22;56302;52.322;5.926;2023-03-21T13:52:25;12.60;83.40
69189;DHT22;56302;52.322;5.926;2023-03-21T13:54:55;12.80;84.40
69189;DHT22;56302;52.322;5.926;2023-03-21T13:57:35;12.90;82.30
69189;DHT22;56302;52.322;5.926;2023-03-21T14:00:26;12.90;82.60
69189;DHT22;56302;52.322;5.926;2023-03-21T14:03:04;13.10;82.40
69189;DHT22;56302;52.322;5.926;2023-03-21T14:05:32;13.30;82.10
69189;DHT22;56302;52.322;5.926;2023-03-21T14:08:05;13.40;81.20
69189;DHT22;56302;52.322;5.926;2023-03-21T14:10:38;13.40;81.40
69189;DHT22;56302;52.322;5.926;2023-03-21T14:13:05;13.40;80.30
69189;DHT22;56302;52.322;5.926;2023-03-21T14:15:44;13.30;80.10
69189;DHT22;56302;52.322;5.926;2023-03-21T14:18:15;13.50;79.10
69189;DHT22;56302;52.322;5.926;2023-03-21T14:20:41;13.50;77.60
69189;DHT22;56302;52.322;5.926;2023-03-21T14:23:13;13.40;76.80
69189;DHT22;56302;52.322;5.926;2023-03-21T14:25:40;13.30;77.00
69189;DHT22;56302;52.322;5.926;2023-03-21T14:28:16;13.20;78.10
69189;DHT22;56302;52.322;5.926;2023-03-21T14:30:43;13.10;78.20
69189;DHT22;56302;52.322;5.926;2023-03-21T14:35:57;12.90;77.20
69189;DHT22;56302;52.322;5.926;2023-03-21T14:38:25;12.90;78.00
69189;DHT22;56302;52.322;5.926;2023-03-21T14:40:53;12.90;76.40
69189;DHT22;56302;52.322;5.926;2023-03-21T14:43:21;12.90;78.00
69189;DHT22;56302;52.322;5.926;2023-03-21T14:45:51;12.90;77.60
69189;DHT22;56302;52.322;5.926;2023-03-21T14:48:17;12.90;77.80
69189;DHT22;56302;52.322;5.926;2023-03-21T14:50:51;12.80;77.00
69189;DHT22;56302;52.322;5.926;2023-03-21T14:53:26;12.80;78.30
69189;DHT22;56302;52.322;5.926;2023-03-21T14:55:58;12.90;78.30
69189;DHT22;56302;52.322;5.926;2023-03-21T14:58:24;13.00;79.20
69189;DHT22;56302;52.322;5.926;2023-03-21T15:00:51;13.00;77.80
69189;DHT22;56302;52.322;5.926;2023-03-21T15:03:20;12.90;77.50
69189;DHT22;56302;52.322;5.926;2023-03-21T15:05:47;12.90;77.10
69189;DHT22;56302;52.322;5.926;2023-03-21T15:08:15;12.90;76.60
69189;DHT22;56302;52.322;5.926;2023-03-21T15:10:45;12.90;77.10
69189;DHT22;56302;52.322;5.926;2023-03-21T15:13:19;12.90;76.80
69189;DHT22;56302;52.322;5.926;2023-03-21T15:15:46;12.90;75.70
69189;DHT22;56302;52.322;5.926;2023-03-21T15:18:17;12.90;76.60
69189;DHT22;56302;52.322;5.926;2023-03-21T15:20:47;12.80;76.30
69189;DHT22;56302;52.322;5.926;2023-03-21T15:23:23;12.80;76.50
69189;DHT22;56302;52.322;5.926;2023-03-21T15:25:51;12.70;75.80
69189;DHT22;56302;52.322;5.926;2023-03-21T15:28:17;12.60;76.60
69189;DHT22;56302;52.322;5.926;2023-03-21T15:30:47;12.60;76.90
69189;DHT22;56302;52.322;5.926;2023-03-21T15:33:14;12.60;76.60
69189;DHT22;56302;52.322;5.926;2023-03-21T15:35:44;12.60;77.50
69189;DHT22;56302;52.322;5.926;2023-03-21T15:38:40;12.50;77.80
69189;DHT22;56302;52.322;5.926;2023-03-21T15:43:44;12.50;78.60
69189;DHT22;56302;52.322;5.926;2023-03-21T15:46:15;12.50;78.80
69189;DHT22;56302;52.322;5.926;2023-03-21T15:48:42;12.40;78.10
69189;DHT22;56302;52.322;5.926;2023-03-21T15:51:19;12.40;78.90
69189;DHT22;56302;52.322;5.926;2023-03-21T15:53:46;12.40;79.50
69189;DHT22;56302;52.322;5.926;2023-03-21T15:56:12;12.40;79.40
69189;DHT22;56302;52.322;5.926;2023-03-21T15:58:46;12.50;79.70
69189;DHT22;56302;52.322;5.926;2023-03-21T16:01:16;12.50;79.90
69189;DHT22;56302;52.322;5.926;2023-03-21T16:03:48;12.50;79.30
69189;DHT22;56302;52.322;5.926;2023-03-21T16:06:21;12.40;78.70
69189;DHT22;56302;52.322;5.926;2023-03-21T16:09:04;12.40;78.90
69189;DHT22;56302;52.322;5.926;2023-03-21T16:11:47;12.40;78.40
69189;DHT22;56302;52.322;5.926;2023-03-21T16:14:13;12.40;78.10
69189;DHT22;56302;52.322;5.926;2023-03-21T16:16:39;12.40;79.10
69189;DHT22;56302;52.322;5.926;2023-03-21T16:19:05;12.30;79.00
69189;DHT22;56302;52.322;5.926;2023-03-21T16:21:32;12.30;78.50
69189;DHT22;56302;52.322;5.926;2023-03-21T16:23:59;12.30;78.80
69189;DHT22;56302;52.322;5.926;2023-03-21T16:26:28;12.20;79.50
69189;DHT22;56302;52.322;5.926;2023-03-21T16:28:55;12.20;79.60
69189;DHT22;56302;52.322;5.926;2023-03-21T16:31:23;12.20;79.30
69189;DHT22;56302;52.322;5.926;2023-03-21T16:33:50;12.20;79.50
69189;DHT22;56302;52.322;5.926;2023-03-21T16:36:18;12.10;78.90
69189;DHT22;56302;52.322;5.926;2023-03-21T16:38:44;12.10;79.80
69189;DHT22;56302;52.322;5.926;2023-03-21T16:41:12;12.10;80.00
69189;DHT22;56302;52.322;5.926;2023-03-21T16:43:38;12.10;79.50
69189;DHT22;56302;52.322;5.926;2023-03-21T16:46:16;12.10;80.10
69189;DHT22;56302;52.322;5.926;2023-03-21T16:48:44;12.00;79.60
69189;DHT22;56302;52.322;5.926;2023-03-21T16:51:15;12.00;80.20
69189;DHT22;56302;52.322;5.926;2023-03-21T16:53:41;12.00;80.60
69189;DHT22;56302;52.322;5.926;2023-03-21T16:56:18;12.00;80.70
69189;DHT22;56302;52.322;5.926;2023-03-21T16:58:44;11.90;81.00
69189;DHT22;56302;52.322;5.926;2023-03-21T17:01:15;11.90;81.60
69189;DHT22;56302;52.322;5.926;2023-03-21T17:03:44;11.90;81.50
69189;DHT22;56302;52.322;5.926;2023-03-21T17:06:14;11.90;82.00
69189;DHT22;56302;52.322;5.926;2023-03-21T17:08:40;11.90;82.60
69189;DHT22;56302;52.322;5.926;2023-03-21T17:11:09;11.80;82.90
69189;DHT22;56302;52.322;5.926;2023-03-21T17:13:35;11.80;83.40
69189;DHT22;56302;52.322;5.926;2023-03-21T17:16:00;11.70;83.90
69189;DHT22;56302;52.322;5.926;2023-03-21T17:18:26;11.70;84.10
69189;DHT22;56302;52.322;5.926;2023-03-21T17:20:51;11.60;84.50
69189;DHT22;56302;52.322;5.926;2023-03-21T17:23:17;11.60;85.00
69189;DHT22;56302;52.322;5.926;2023-03-21T17:25:42;11.60;84.90
69189;DHT22;56302;52.322;5.926;2023-03-21T17:28:08;11.60;84.90
69189;DHT22;56302;52.322;5.926;2023-03-21T17:30:34;11.60;85.20
69189;DHT22;56302;52.322;5.926;2023-03-21T17:33:03;11.50;85.80
69189;DHT22;56302;52.322;5.926;2023-03-21T17:35:28;11.50;86.00
69189;DHT22;56302;52.322;5.926;2023-03-21T17:37:54;11.50;86.10
69189;DHT22;56302;52.322;5.926;2023-03-21T17:40:25;11.40;86.50
69189;DHT22;56302;52.322;5.926;2023-03-21T17:42:51;11.50;86.30
69189;DHT22;56302;52.322;5.926;2023-03-21T17:45:18;11.50;86.40
69189;DHT22;56302;52.322;5.926;2023-03-21T17:47:44;11.30;87.00
69189;DHT22;56302;52.322;5.926;2023-03-21T17:50:31;11.30;86.70
69189;DHT22;56302;52.322;5.926;2023-03-21T17:52:58;11.40;86.70
69189;DHT22;56302;52.322;5.926;2023-03-21T17:55:24;11.30;86.80
69189;DHT22;56302;52.322;5.926;2023-03-21T17:57:50;11.30;86.90
69189;DHT22;56302;52.322;5.926;2023-03-21T18:00:25;11.20;87.10
69189;DHT22;56302;52.322;5.926;2023-03-21T18:02:51;11.20;87.00
69189;DHT22;56302;52.322;5.926;2023-03-21T18:05:18;11.20;87.40
69189;DHT22;56302;52.322;5.926;2023-03-21T18:07:44;11.10;87.60
69189;DHT22;56302;52.322;5.926;2023-03-21T18:10:22;11.00;87.50
69189;DHT22;56302;52.322;5.926;2023-03-21T18:12:48;11.00;87.30
69189;DHT22;56302;52.322;5.926;2023-03-21T18:15:17;11.00;87.40
69189;DHT22;56302;52.322;5.926;2023-03-21T18:17:43;10.90;87.10
69189;DHT22;56302;52.322;5.926;2023-03-21T18:20:12;10.90;87.50
69189;DHT22;56302;52.322;5.926;2023-03-21T18:22:39;10.80;87.80
69189;DHT22;56302;52.322;5.926;2023-03-21T18:25:05;10.80;87.40
69189;DHT22;56302;52.322;5.926;2023-03-21T18:27:31;10.80;87.00
69189;DHT22;56302;52.322;5.926;2023-03-21T18:29:56;10.80;86.60
69189;DHT22;56302;52.322;5.926;2023-03-21T18:32:23;10.80;86.50
69189;DHT22;56302;52.322;5.926;2023-03-21T18:34:50;10.70;86.60
69189;DHT22;56302;52.322;5.926;2023-03-21T18:37:16;10.70;86.70
69189;DHT22;56302;52.322;5.926;2023-03-21T18:39:42;10.60;86.80
69189;DHT22;56302;52.322;5.926;2023-03-21T18:42:12;10.60;86.70
69189;DHT22;56302;52.322;5.926;2023-03-21T18:44:38;10.60;86.70
69189;DHT22;56302;52.322;5.926;2023-03-21T18:47:10;10.60;86.80
69189;DHT22;56302;52.322;5.926;2023-03-21T18:49:35;10.50;86.80
69189;DHT22;56302;52.322;5.926;2023-03-21T18:52:02;10.50;86.70
69189;DHT22;56302;52.322;5.926;2023-03-21T18:54:27;10.40;86.90
69189;DHT22;56302;52.322;5.926;2023-03-21T18:56:53;10.40;87.20
69189;DHT22;56302;52.322;5.926;2023-03-21T18:59:19;10.30;87.20
69189;DHT22;56302;52.322;5.926;2023-03-21T19:01:46;10.20;87.20
69189;DHT22;56302;52.322;5.926;2023-03-21T19:04:12;10.20;87.00
69189;DHT22;56302;52.322;5.926;2023-03-21T19:06:38;10.10;87.50
69189;DHT22;56302;52.322;5.926;2023-03-21T19:09:04;10.10;87.90
69189;DHT22;56302;52.322;5.926;2023-03-21T19:11:29;10.00;88.10
69189;DHT22;56302;52.322;5.926;2023-03-21T19:13:55;10.10;87.90
69189;DHT22;56302;52.322;5.926;2023-03-21T19:16:21;10.10;88.10
69189;DHT22;56302;52.322;5.926;2023-03-21T19:18:46;10.00;87.80
69189;DHT22;56302;52.322;5.926;2023-03-21T19:21:12;10.00;88.80
69189;DHT22;56302;52.322;5.926;2023-03-21T19:23:38;9.90;89.30
69189;DHT22;56302;52.322;5.926;2023-03-21T19:26:03;9.90;89.60
69189;DHT22;56302;52.322;5.926;2023-03-21T19:28:30;9.90;89.90
69189;DHT22;56302;52.322;5.926;2023-03-21T19:31:02;9.90;89.50
69189;DHT22;56302;52.322;5.926;2023-03-21T19:33:28;10.00;89.20
69189;DHT22;56302;52.322;5.926;2023-03-21T19:35:53;10.00;89.50
69189;DHT22;56302;52.322;5.926;2023-03-21T19:38:19;10.00;89.60
69189;DHT22;56302;52.322;5.926;2023-03-21T19:40:44;9.90;89.70
69189;DHT22;56302;52.322;5.926;2023-03-21T19:43:10;9.90;89.50
69189;DHT22;56302;52.322;5.926;2023-03-21T19:45:36;9.90;89.60
69189;DHT22;56302;52.322;5.926;2023-03-21T19:48:01;9.90;89.50
69189;DHT22;56302;52.322;5.926;2023-03-21T19:50:27;9.80;90.10
69189;DHT22;56302;52.322;5.926;2023-03-21T19:52:57;9.80;89.90
69189;DHT22;56302;52.322;5.926;2023-03-21T19:55:24;9.80;89.90
69189;DHT22;56302;52.322;5.926;2023-03-21T19:57:50;9.80;90.10
69189;DHT22;56302;52.322;5.926;2023-03-21T20:00:17;9.80;90.10
69189;DHT22;56302;52.322;5.926;2023-03-21T20:02:43;9.70;90.00
69189;DHT22;56302;52.322;5.926;2023-03-21T20:05:10;9.70;90.60
69189;DHT22;56302;52.322;5.926;2023-03-21T20:07:37;9.70;90.20
69189;DHT22;56302;52.322;5.926;2023-03-21T20:10:04;9.70;89.80
69189;DHT22;56302;52.322;5.926;2023-03-21T20:12:30;9.70;90.60
69189;DHT22;56302;52.322;5.926;2023-03-21T20:14:57;9.70;90.80
69189;DHT22;56302;52.322;5.926;2023-03-21T20:17:22;9.60;90.50
69189;DHT22;56302;52.322;5.926;2023-03-21T20:19:48;9.60;90.50
69189;DHT22;56302;52.322;5.926;2023-03-21T20:22:13;9.60;90.50
69189;DHT22;56302;52.322;5.926;2023-03-21T20:24:39;9.60;90.10
69189;DHT22;56302;52.322;5.926;2023-03-21T20:27:07;9.50;90.70
69189;DHT22;56302;52.322;5.926;2023-03-21T20:29:36;9.50;91.10
69189;DHT22;56302;52.322;5.926;2023-03-21T20:32:02;9.50;91.00
69189;DHT22;56302;52.322;5.926;2023-03-21T20:34:28;9.60;91.40
69189;DHT22;56302;52.322;5.926;2023-03-21T20:36:54;9.60;91.40
69189;DHT22;56302;52.322;5.926;2023-03-21T20:39:19;9.60;91.60
69189;DHT22;56302;52.322;5.926;2023-03-21T20:41:45;9.60;91.90
69189;DHT22;56302;52.322;5.926;2023-03-21T20:44:11;9.60;92.20
69189;DHT22;56302;52.322;5.926;2023-03-21T20:46:37;9.60;92.40
69189;DHT22;56302;52.322;5.926;2023-03-21T20:49:03;9.50;92.50
69189;DHT22;56302;52.322;5.926;2023-03-21T20:51:30;9.50;92.40
69189;DHT22;56302;52.322;5.926;2023-03-21T20:53:56;9.50;92.10
69189;DHT22;56302;52.322;5.926;2023-03-21T20:56:22;9.40;92.50
69189;DHT22;56302;52.322;5.926;2023-03-21T20:58:47;9.50;92.70
69189;DHT22;56302;52.322;5.926;2023-03-21T21:01:13;9.50;92.80
69189;DHT22;56302;52.322;5.926;2023-03-21T21:03:41;9.40;92.90
69189;DHT22;56302;52.322;5.926;2023-03-21T21:08:37;9.40;93.50
69189;DHT22;56302;52.322;5.926;2023-03-21T21:11:03;9.40;93.60
69189;DHT22;56302;52.322;5.926;2023-03-21T21:13:29;9.40;93.60
69189;DHT22;56302;52.322;5.926;2023-03-21T21:15:54;9.40;93.60
69189;DHT22;56302;52.322;5.926;2023-03-21T21:18:20;9.40;93.60
69189;DHT22;56302;52.322;5.926;2023-03-21T21:20:52;9.40;93.70
69189;DHT22;56302;52.322;5.926;2023-03-21T21:23:18;9.40;93.60
69189;DHT22;56302;52.322;5.926;2023-03-21T21:25:44;9.30;93.90
69189;DHT22;56302;52.322;5.926;2023-03-21T21:28:09;9.30;93.80
69189;DHT22;56302;52.322;5.926;2023-03-21T21:30:37;9.30;93.80
69189;DHT22;56302;52.322;5.926;2023-03-21T21:33:03;9.40;94.00
69189;DHT22;56302;52.322;5.926;2023-03-21T21:35:29;9.30;93.60
69189;DHT22;56302;52.322;5.926;2023-03-21T21:37:57;9.40;93.80
69189;DHT22;56302;52.322;5.926;2023-03-21T21:40:23;9.40;93.60
69189;DHT22;56302;52.322;5.926;2023-03-21T21:42:50;9.30;93.50
69189;DHT22;56302;52.322;5.926;2023-03-21T21:45:16;9.30;93.30
69189;DHT22;56302;52.322;5.926;2023-03-21T21:47:43;9.30;93.10
69189;DHT22;56302;52.322;5.926;2023-03-21T21:50:09;9.40;92.90
69189;DHT22;56302;52.322;5.926;2023-03-21T21:52:35;9.30;92.80
69189;DHT22;56302;52.322;5.926;2023-03-21T21:55:02;9.40;92.70
69189;DHT22;56302;52.322;5.926;2023-03-21T21:57:28;9.40;92.40
69189;DHT22;56302;52.322;5.926;2023-03-21T21:59:59;9.40;92.70
69189;DHT22;56302;52.322;5.926;2023-03-21T22:02:26;9.40;92.70
69189;DHT22;56302;52.322;5.926;2023-03-21T22:04:55;9.40;92.40
69189;DHT22;56302;52.322;5.926;2023-03-21T22:07:24;9.30;92.30
69189;DHT22;56302;52.322;5.926;2023-03-21T22:09:50;9.30;92.30
69189;DHT22;56302;52.322;5.926;2023-03-21T22:12:16;9.30;92.30
69189;DHT22;56302;52.322;5.926;2023-03-21T22:14:41;9.30;92.30
69189;DHT22;56302;52.322;5.926;2023-03-21T22:17:07;9.20;92.20
69189;DHT22;56302;52.322;5.926;2023-03-21T22:19:32;9.20;92.20
69189;DHT22;56302;52.322;5.926;2023-03-21T22:21:58;9.20;92.40
69189;DHT22;56302;52.322;5.926;2023-03-21T22:24:26;9.20;92.90
69189;DHT22;56302;52.322;5.926;2023-03-21T22:26:52;9.20;93.00
69189;DHT22;56302;52.322;5.926;2023-03-21T22:29:26;9.20;93.10
69189;DHT22;56302;52.322;5.926;2023-03-21T22:31:52;9.20;93.10
69189;DHT22;56302;52.322;5.926;2023-03-21T22:34:20;9.10;93.10
69189;DHT22;56302;52.322;5.926;2023-03-21T22:36:46;9.20;93.20
69189;DHT22;56302;52.322;5.926;2023-03-21T22:39:15;9.20;93.50
69189;DHT22;56302;52.322;5.926;2023-03-21T22:41:40;9.20;93.40
69189;DHT22;56302;52.322;5.926;2023-03-21T22:44:06;9.20;93.50
69189;DHT22;56302;52.322;5.926;2023-03-21T22:46:31;9.20;93.50
69189;DHT22;56302;52.322;5.926;2023-03-21T22:48:59;9.20;93.30
69189;DHT22;56302;52.322;5.926;2023-03-21T22:51:24;9.20;93.30
69189;DHT22;56302;52.322;5.926;2023-03-21T22:53:50;9.20;93.20
69189;DHT22;56302;52.322;5.926;2023-03-21T22:56:15;9.20;93.30
69189;DHT22;56302;52.322;5.926;2023-03-21T22:58:41;9.20;93.10
69189;DHT22;56302;52.322;5.926;2023-03-21T23:01:07;9.20;92.90
69189;DHT22;56302;52.322;5.926;2023-03-21T23:03:32;9.20;92.70
69189;DHT22;56302;52.322;5.926;2023-03-21T23:05:59;9.20;92.60
69189;DHT22;56302;52.322;5.926;2023-03-21T23:08:28;9.10;92.50
69189;DHT22;56302;52.322;5.926;2023-03-21T23:10:54;9.20;92.50
69189;DHT22;56302;52.322;5.926;2023-03-21T23:13:19;9.10;92.30
69189;DHT22;56302;52.322;5.926;2023-03-21T23:15:48;9.10;92.40
69189;DHT22;56302;52.322;5.926;2023-03-21T23:18:14;9.10;92.40
69189;DHT22;56302;52.322;5.926;2023-03-21T23:20:40;9.00;92.60
69189;DHT22;56302;52.322;5.926;2023-03-21T23:23:05;9.00;92.50
69189;DHT22;56302;52.322;5.926;2023-03-21T23:25:31;9.00;92.50
69189;DHT22;56302;52.322;5.926;2023-03-21T23:27:58;9.00;92.50
69189;DHT22;56302;52.322;5.926;2023-03-21T23:30:24;9.00;92.70
69189;DHT22;56302;52.322;5.926;2023-03-21T23:32:49;9.00;92.70
69189;DHT22;56302;52.322;5.926;2023-03-21T23:35:15;9.00;92.50
69189;DHT22;56302;52.322;5.926;2023-03-21T23:37:40;9.00;92.50
69189;DHT22;56302;52.322;5.926;2023-03-21T23:40:19;8.90;92.40
69189;DHT22;56302;52.322;5.926;2023-03-21T23:42:45;8.90;92.30
69189;DHT22;56302;52.322;5.926;2023-03-21T23:45:10;8.90;92.40
69189;DHT22;56302;52.322;5.926;2023-03-21T23:47:36;8.90;92.30
69189;DHT22;56302;52.322;5.926;2023-03-21T23:50:01;8.90;92.20
69189;DHT22;56302;52.322;5.926;2023-03-21T23:52:31;8.80;92.30
69189;DHT22;56302;52.322;5.926;2023-03-21T23:54:56;8.80;92.30
69189;DHT22;56302;52.322;5.926;2023-03-21T23:57:22;8.80;92.30
69189;DHT22;56302;52.322;5.926;2023-03-21T23:59:47;8.80;92.20
